Time;durP1;ratioP1;P1;durP2;ratioP2;P2;SDS_P1;SDS_P2;PMS_P1;PMS_P2;Temp;Humidity;BMP_temperature;BMP_pressure;BME280_temperature;BME280_humidity;BME280_pressure;Samples;Min_cycle;Max_cycle;Signal;HPM_P1;HPM_P2
2022/05/23 00:01:44;;;;;;;11.63;5.30;;;;;;;18.13;60.33;100547.16;5010118;28;20421;-76
2022/05/23 00:04:10;;;;;;;11.15;5.38;;;;;;;18.19;59.96;100548.78;5012080;28;20149;-76
2022/05/23 00:06:36;;;;;;;10.48;5.68;;;;;;;18.14;60.17;100545.25;5013003;28;20041;-76
2022/05/23 00:09:02;;;;;;;10.85;5.45;;;;;;;18.16;59.98;100548.50;5013007;28;20037;-76
2022/05/23 00:11:27;;;;;;;13.63;5.30;;;;;;;18.11;60.21;100546.63;5018842;28;20026;-76
2022/05/23 00:13:52;;;;;;;10.75;5.47;;;;;;;18.02;60.05;100551.88;5031394;28;20073;-76
2022/05/23 00:16:20;;;;;;;16.58;5.97;;;;;;;18.02;61.06;100549.13;5034100;28;20038;-74
2022/05/23 00:18:47;;;;;;;12.02;5.60;;;;;;;18.06;60.27;100547.47;5006647;28;20072;-76
2022/05/23 00:21:13;;;;;;;12.48;5.55;;;;;;;18.07;60.72;100542.81;5009899;28;20042;-76
2022/05/23 00:23:38;;;;;;;15.70;5.78;;;;;;;17.99;60.89;100538.75;4995589;28;20520;-77
2022/05/23 00:26:04;;;;;;;13.35;5.75;;;;;;;18.03;61.25;100525.31;4998676;28;20045;-78
2022/05/23 00:28:29;;;;;;;10.18;5.50;;;;;;;18.01;60.87;100522.88;5016577;28;20517;-78
2022/05/23 00:30:54;;;;;;;12.25;5.43;;;;;;;17.97;60.64;100518.25;4997667;28;20034;-77
2022/05/23 00:36:04;;;;;;;10.43;5.90;;;;;;;17.86;61.25;100534.69;5015877;28;20137;-76
2022/05/23 00:38:29;;;;;;;9.43;5.47;;;;;;;17.76;62.04;100537.47;5014752;28;20124;-77
2022/05/23 00:44:02;;;;;;;14.70;5.75;;;;;;;17.71;62.25;100524.63;4985187;28;20042;-79
2022/05/23 00:46:27;;;;;;;12.02;5.75;;;;;;;17.64;62.76;100515.09;5015678;28;20045;-78
2022/05/23 00:48:52;;;;;;;11.05;6.43;;;;;;;17.65;62.33;100514.00;5015307;28;20052;-78
2022/05/23 00:51:18;;;;;;;14.52;6.53;;;;;;;17.59;62.51;100498.69;5015589;28;20050;-78
2022/05/23 00:53:54;;;;;;;10.98;5.85;;;;;;;17.56;62.58;100491.03;5013655;28;20045;-76
2022/05/23 00:56:24;;;;;;;17.65;6.13;;;;;;;17.56;62.68;100496.50;5035764;28;20050;-76
2022/05/23 00:58:54;;;;;;;12.38;6.60;;;;;;;17.55;63.71;100487.50;5016725;28;20128;-78
2022/05/23 01:01:23;;;;;;;11.57;6.53;;;;;;;17.61;62.58;100491.03;5032725;28;20077;-77
2022/05/23 01:03:49;;;;;;;11.70;6.43;;;;;;;17.63;62.56;100488.81;5034908;28;20034;-78
2022/05/23 01:06:14;;;;;;;12.38;6.63;;;;;;;17.54;63.04;100491.31;5034489;28;20400;-78
2022/05/23 01:08:41;;;;;;;12.88;6.63;;;;;;;17.53;62.97;100498.72;5034958;28;20443;-76
2022/05/23 01:11:07;;;;;;;11.98;6.15;;;;;;;17.53;63.31;100498.72;5034256;28;20117;-76
2022/05/23 01:13:33;;;;;;;10.68;6.13;;;;;;;17.54;63.50;100505.84;5017217;28;20029;-77
2022/05/23 01:15:59;;;;;;;13.55;6.45;;;;;;;17.60;63.45;100511.28;5034665;28;20036;-76
2022/05/23 01:18:24;;;;;;;13.15;5.55;;;;;;;17.54;64.06;100514.03;5032880;28;20144;-77
2022/05/23 01:20:56;;;;;;;17.48;6.57;;;;;;;17.56;63.53;100507.44;5001077;28;20068;-78
2022/05/23 01:23:47;;;;;;;13.90;6.50;;;;;;;17.57;63.42;100500.88;5013035;28;20042;-76
2022/05/23 01:26:12;;;;;;;11.45;6.05;;;;;;;17.54;63.81;100494.88;5018259;28;20170;-76
2022/05/23 01:28:41;;;;;;;14.65;6.00;;;;;;;17.43;63.84;100485.06;5002678;28;20030;-78
2022/05/23 01:31:09;;;;;;;12.50;6.45;;;;;;;17.52;64.51;100488.88;5032641;28;20034;-78
2022/05/23 01:33:35;;;;;;;14.43;7.07;;;;;;;17.40;64.91;100487.56;5017569;28;20036;-78
2022/05/23 01:36:00;;;;;;;13.77;6.40;;;;;;;17.40;64.69;100485.63;5033500;28;20041;-77
2022/05/23 01:38:26;;;;;;;12.27;6.50;;;;;;;17.38;65.15;100479.63;5035012;28;20026;-78
2022/05/23 01:40:54;;;;;;;13.68;6.25;;;;;;;17.39;65.74;100461.31;5017084;28;20419;-77
2022/05/23 01:43:19;;;;;;;11.50;6.22;;;;;;;17.35;65.04;100477.47;5035220;28;20041;-77
2022/05/23 01:45:44;;;;;;;11.73;6.18;;;;;;;17.35;65.68;100477.47;5034796;28;20100;-77
2022/05/23 01:48:09;;;;;;;12.18;6.47;;;;;;;17.31;65.31;100481.84;5034367;28;20038;-76
2022/05/23 01:50:35;;;;;;;11.20;6.07;;;;;;;17.31;66.57;100482.66;5017165;28;20074;-78
2022/05/23 01:53:00;;;;;;;15.02;6.00;;;;;;;17.23;66.65;100480.50;5016465;28;20572;-78
2022/05/23 01:55:26;;;;;;;11.63;6.18;;;;;;;17.23;67.14;100485.16;5035970;28;20526;-77
2022/05/23 01:57:51;;;;;;;12.13;6.38;;;;;;;17.20;66.82;100480.25;5016806;28;20032;-78
2022/05/23 02:03:01;;;;;;;11.20;6.70;;;;;;;17.21;67.51;100470.94;5054472;28;20032;-77
2022/05/23 02:05:27;;;;;;;15.13;6.50;;;;;;;17.09;66.83;100458.41;5049392;28;20021;-76
2022/05/23 02:07:53;;;;;;;11.52;6.60;;;;;;;17.14;66.50;100457.56;5034087;28;20495;-77
2022/05/23 02:10:19;;;;;;;14.52;6.90;;;;;;;17.09;67.00;100460.31;5034666;28;20029;-77
2022/05/23 02:12:45;;;;;;;9.38;6.45;;;;;;;17.10;66.73;100459.22;5015428;28;20036;-77
2022/05/23 02:15:10;;;;;;;13.70;6.85;;;;;;;17.10;67.11;100465.50;5016007;28;20029;-77
2022/05/23 02:17:36;;;;;;;11.70;6.65;;;;;;;17.11;66.86;100464.41;5033413;28;20038;-76
2022/05/23 02:20:04;;;;;;;14.75;6.82;;;;;;;17.10;66.97;100465.50;5015397;28;20063;-76
2022/05/23 02:22:29;;;;;;;16.00;6.97;;;;;;;17.06;67.65;100464.44;5033587;28;20063;-77
2022/05/23 02:24:54;;;;;;;13.00;6.40;;;;;;;17.04;67.92;100461.16;5017581;28;20044;-75
2022/05/23 02:27:20;;;;;;;11.95;6.97;;;;;;;16.96;68.31;100453.53;5012680;28;20041;-79
2022/05/23 02:29:45;;;;;;;13.90;7.15;;;;;;;16.98;68.22;100456.78;5023913;28;20065;-77
2022/05/23 02:32:10;;;;;;;12.82;7.18;;;;;;;17.02;67.97;100448.88;5032292;28;20036;-77
2022/05/23 02:34:36;;;;;;;12.32;6.68;;;;;;;17.04;68.92;100446.66;5033692;28;20480;-75
2022/05/23 02:37:01;;;;;;;13.75;6.97;;;;;;;17.04;69.00;100444.75;5044012;28;20045;-76
2022/05/23 02:39:27;;;;;;;12.90;6.88;;;;;;;16.97;68.76;100434.13;5051740;28;20042;-77
2022/05/23 02:41:52;;;;;;;11.63;7.13;;;;;;;16.94;68.29;100440.16;5034068;28;20445;-77
2022/05/23 02:44:18;;;;;;;13.75;7.15;;;;;;;16.96;69.61;100432.47;5033633;28;20157;-77
2022/05/23 02:46:43;;;;;;;14.05;7.05;;;;;;;16.89;69.24;100418.28;5011450;28;20041;-77
2022/05/23 02:49:10;;;;;;;17.15;7.20;;;;;;;16.93;68.36;100421.28;5008197;28;20042;-76
2022/05/23 02:51:36;;;;;;;11.48;7.15;;;;;;;16.92;69.26;100414.19;5015307;28;20464;-76
2022/05/23 02:54:01;;;;;;;12.43;6.85;;;;;;;16.91;70.10;100412.53;5031969;28;20132;-76
2022/05/23 02:56:26;;;;;;;15.02;7.55;;;;;;;16.91;69.26;100398.88;5033281;28;20040;-76
2022/05/23 02:58:51;;;;;;;14.50;7.40;;;;;;;16.87;68.94;100392.34;5033844;28;20467;-77
2022/05/23 03:01:17;;;;;;;13.80;7.07;;;;;;;16.80;69.55;100381.66;5030143;28;20041;-77
2022/05/23 03:03:43;;;;;;;14.30;7.28;;;;;;;16.84;69.97;100363.63;5012924;28;20036;-76
2022/05/23 03:06:08;;;;;;;12.27;7.35;;;;;;;16.77;70.53;100363.09;5014054;28;20033;-77
2022/05/23 03:08:36;;;;;;;12.27;7.00;;;;;;;16.74;70.81;100352.72;5033040;28;20409;-77
2022/05/23 03:11:04;;;;;;;10.70;6.88;;;;;;;16.70;70.74;100344.28;5031675;28;20060;-76
2022/05/23 03:13:29;;;;;;;14.32;7.47;;;;;;;16.73;70.56;100340.97;5013186;28;20091;-76
2022/05/23 03:15:55;;;;;;;16.13;7.68;;;;;;;16.75;70.95;100338.78;5012903;28;20038;-76
2022/05/23 03:18:24;;;;;;;10.88;7.40;;;;;;;16.73;71.32;100337.44;5032489;28;20048;-76
2022/05/23 03:20:55;;;;;;;15.35;8.07;;;;;;;16.74;72.07;100339.91;5032182;28;20065;-77
2022/05/23 03:28:48;;;;;;;17.38;7.68;;;;;;;16.60;71.59;100320.53;5018609;28;20047;-76
2022/05/23 03:31:14;;;;;;;13.70;7.32;;;;;;;16.65;71.79;100319.69;5032062;28;20112;-77
2022/05/23 03:33:39;;;;;;;13.52;7.60;;;;;;;16.57;72.49;100314.81;5032200;28;20033;-77
2022/05/23 03:36:04;;;;;;;13.95;7.70;;;;;;;16.59;71.95;100318.06;5032398;28;20454;-77
2022/05/23 03:38:30;;;;;;;12.25;7.03;;;;;;;16.59;71.80;100309.88;5014677;28;20036;-76
2022/05/23 03:40:55;;;;;;;16.92;7.70;;;;;;;16.53;72.73;100306.38;5015811;28;20052;-76
2022/05/23 03:43:20;;;;;;;11.02;7.20;;;;;;;16.48;72.75;100301.72;5032219;28;20029;-76
2022/05/23 03:45:46;;;;;;;13.80;7.13;;;;;;;16.55;72.54;100300.63;5013549;28;20055;-76
2022/05/23 03:48:12;;;;;;;13.00;7.53;;;;;;;16.55;72.91;100289.69;5031553;28;20472;-76
2022/05/23 03:50:38;;;;;;;12.68;7.65;;;;;;;16.56;73.27;100294.88;5014168;28;20061;-77
2022/05/23 03:53:04;;;;;;;14.98;8.13;;;;;;;16.53;73.33;100289.13;5032043;28;20190;-76
2022/05/23 03:55:30;;;;;;;14.48;7.50;;;;;;;16.50;73.24;100281.50;5032293;28;20033;-77
2022/05/23 03:57:55;;;;;;;17.25;8.07;;;;;;;16.50;73.51;100287.81;5031898;28;20036;-76
2022/05/23 04:00:21;;;;;;;14.52;7.75;;;;;;;16.53;74.18;100280.94;5017715;28;20400;-76
2022/05/23 04:02:46;;;;;;;11.85;7.28;;;;;;;16.51;73.42;100277.69;5016674;28;20026;-76
2022/05/23 04:05:14;;;;;;;15.38;7.57;;;;;;;16.48;74.21;100279.88;5036536;28;20026;-76
2022/05/23 04:07:41;;;;;;;12.90;7.50;;;;;;;16.48;74.53;100284.53;5018211;28;20496;-76
2022/05/23 04:10:24;;;;;;;11.75;7.78;;;;;;;16.48;73.76;100274.41;5017629;28;20044;-77
2022/05/23 04:12:50;;;;;;;16.38;7.70;;;;;;;16.34;75.09;100270.63;5036273;28;20099;-76
2022/05/23 04:15:15;;;;;;;11.65;7.32;;;;;;;16.38;75.01;100266.25;5036346;28;20454;-77
2022/05/23 04:17:40;;;;;;;12.93;7.95;;;;;;;16.38;75.32;100249.88;5036386;28;20144;-75
2022/05/23 04:20:08;;;;;;;13.57;8.02;;;;;;;16.38;75.08;100246.31;5035726;28;20099;-77
2022/05/23 04:22:34;;;;;;;12.23;7.43;;;;;;;16.40;75.21;100253.16;5035892;28;20440;-77
2022/05/23 04:24:59;;;;;;;16.40;8.18;;;;;;;16.42;75.46;100247.41;5017992;28;20465;-75
2022/05/23 04:27:25;;;;;;;13.13;7.68;;;;;;;16.37;75.67;100245.50;5036424;28;20042;-77
2022/05/23 04:29:50;;;;;;;16.17;7.57;;;;;;;16.44;75.96;100251.50;5017271;28;20144;-75
2022/05/23 04:35:14;;;;;;;13.20;7.05;;;;;;;16.50;75.07;100243.28;5035810;28;20040;-77
2022/05/23 04:37:42;;;;;;;11.43;7.72;;;;;;;16.48;76.08;100241.63;5035596;28;20546;-76
2022/05/23 04:40:08;;;;;;;15.38;7.40;;;;;;;16.52;75.79;100252.03;5016713;28;20037;-76
2022/05/23 04:42:34;;;;;;;14.27;7.55;;;;;;;16.50;75.77;100243.28;5033571;28;20049;-76
2022/05/23 04:44:59;;;;;;;11.95;7.30;;;;;;;16.53;75.66;100231.78;5035567;28;20088;-77
2022/05/23 04:50:09;;;;;;;14.50;8.20;;;;;;;16.59;76.79;100225.19;5034980;28;20053;-77
2022/05/23 04:52:34;;;;;;;14.15;7.32;;;;;;;16.61;76.35;100233.94;5017105;28;20054;-77
2022/05/23 04:54:59;;;;;;;12.38;6.80;;;;;;;16.62;76.46;100224.63;5035712;28;20045;-76
2022/05/23 04:57:25;;;;;;;12.60;7.35;;;;;;;16.66;76.63;100221.06;5036175;28;20435;-77
2022/05/23 04:59:50;;;;;;;12.35;7.15;;;;;;;16.65;76.40;100224.91;5018449;28;20120;-75
2022/05/23 05:02:16;;;;;;;12.45;6.40;;;;;;;16.65;75.99;100221.34;5051843;28;20076;-76
2022/05/23 05:04:41;;;;;;;11.38;6.85;;;;;;;16.68;75.69;100223.50;5047248;28;20437;-77
2022/05/23 05:07:06;;;;;;;13.70;7.03;;;;;;;16.71;76.76;100220.22;5056878;28;20121;-76
2022/05/23 05:09:33;;;;;;;11.88;6.90;;;;;;;16.70;76.84;100215.88;5053751;28;20037;-75
2022/05/23 05:11:59;;;;;;;10.07;6.32;;;;;;;16.78;77.47;100207.06;5033892;28;20502;-76
2022/05/23 05:14:24;;;;;;;11.60;7.00;;;;;;;16.80;75.96;100204.88;5035207;28;20039;-75
2022/05/23 05:16:49;;;;;;;13.65;6.90;;;;;;;16.88;76.88;100198.03;5034753;28;20039;-76
2022/05/23 05:19:15;;;;;;;16.95;6.78;;;;;;;16.95;76.16;100190.34;5034733;28;20468;-77
2022/05/23 05:21:40;;;;;;;12.07;6.88;;;;;;;16.94;75.48;100177.78;5034504;28;20033;-76
2022/05/23 05:24:05;;;;;;;11.45;6.85;;;;;;;16.99;76.39;100168.72;5034618;28;20385;-75
2022/05/23 05:26:31;;;;;;;15.27;6.80;;;;;;;17.07;76.55;100170.03;5035100;28;20025;-77
2022/05/23 05:28:56;;;;;;;13.88;6.70;;;;;;;17.07;75.79;100170.81;5035276;28;20041;-75
2022/05/23 05:31:29;;;;;;;13.70;6.90;;;;;;;17.10;75.49;100162.06;5016884;28;20029;-77
2022/05/23 05:34:04;;;;;;;11.48;7.07;;;;;;;17.15;75.55;100167.50;5028626;28;20121;-77
2022/05/23 05:36:37;;;;;;;12.00;7.00;;;;;;;17.14;75.37;100154.94;5033918;28;20032;-77
2022/05/23 05:39:05;;;;;;;10.80;6.97;;;;;;;17.21;76.51;100151.88;5016416;28;20036;-75
2022/05/23 05:41:36;;;;;;;11.70;7.20;;;;;;;17.20;75.66;100152.97;5033884;28;20048;-77
2022/05/23 05:44:05;;;;;;;11.32;7.40;;;;;;;17.21;75.22;100148.31;5015205;28;20499;-75
2022/05/23 05:46:53;;;;;;;10.18;6.88;;;;;;;17.25;75.08;100143.91;5034416;28;20034;-78
2022/05/23 05:49:24;;;;;;;10.45;7.22;;;;;;;17.22;73.84;100139.00;5034672;28;20091;-75
2022/05/23 05:51:52;;;;;;;12.10;7.13;;;;;;;17.27;74.63;100130.75;5016171;28;20052;-76
2022/05/23 05:54:22;;;;;;;11.82;7.15;;;;;;;17.27;74.76;100128.84;5014334;28;20131;-75
2022/05/23 05:56:49;;;;;;;10.75;7.78;;;;;;;17.27;75.60;100128.03;5014245;28;20461;-78
2022/05/23 05:59:15;;;;;;;17.35;8.23;;;;;;;17.31;75.94;100126.34;4994667;28;20037;-75
2022/05/23 06:01:41;;;;;;;15.23;7.45;;;;;;;17.31;74.63;100126.34;4991187;28;20030;-76
2022/05/23 06:04:06;;;;;;;17.08;7.72;;;;;;;17.33;74.38;100132.34;4993152;28;20077;-76
2022/05/23 06:12:00;;;;;;;12.48;7.72;;;;;;;17.50;74.18;100135.47;4999922;28;20666;-75
2022/05/23 06:14:25;;;;;;;16.35;7.35;;;;;;;17.48;74.11;100132.22;5013765;28;20057;-78
2022/05/23 06:16:51;;;;;;;13.45;7.45;;;;;;;17.56;74.10;100124.47;5013994;28;20452;-77
2022/05/23 06:19:17;;;;;;;11.85;7.35;;;;;;;17.61;73.55;100119.75;5013775;28;20108;-75
2022/05/23 06:21:42;;;;;;;17.98;7.20;;;;;;;17.67;73.28;100112.31;5013436;28;20100;-77
2022/05/23 06:24:08;;;;;;;12.65;7.32;;;;;;;17.73;72.53;100102.13;5014541;28;20485;-77
2022/05/23 06:26:33;;;;;;;11.93;7.38;;;;;;;17.76;72.56;100099.63;5036869;28;20022;-77
2022/05/23 06:28:58;;;;;;;14.30;7.25;;;;;;;17.75;72.91;100097.19;5024403;28;20043;-75
2022/05/23 06:31:24;;;;;;;11.30;7.13;;;;;;;17.81;72.86;100096.81;5013315;28;20116;-76
2022/05/23 06:33:49;;;;;;;9.13;7.07;;;;;;;17.88;72.47;100091.00;5009408;28;20109;-78
2022/05/23 06:36:16;;;;;;;11.52;6.90;;;;;;;17.86;71.38;100094.03;5000355;28;20034;-76
2022/05/23 06:38:41;;;;;;;14.82;7.28;;;;;;;17.86;71.67;100094.03;5013862;28;20034;-77
2022/05/23 06:41:09;;;;;;;11.48;7.32;;;;;;;17.94;71.69;100106.28;5013305;28;20036;-77
2022/05/23 06:43:35;;;;;;;17.23;7.25;;;;;;;17.96;72.17;100095.03;5013589;28;20036;-77
2022/05/23 06:46:02;;;;;;;13.80;7.95;;;;;;;18.00;72.46;100098.81;5013033;28;20034;-76
2022/05/23 06:48:27;;;;;;;10.70;6.60;;;;;;;18.08;72.06;100100.91;4995201;28;20034;-76
2022/05/23 06:50:53;;;;;;;10.63;7.38;;;;;;;18.19;71.99;100096.09;4995960;28;20032;-76
2022/05/23 06:53:20;;;;;;;11.05;6.82;;;;;;;18.26;71.04;100102.03;5023554;28;20057;-76
2022/05/23 06:55:46;;;;;;;14.00;6.95;;;;;;;18.30;72.59;100091.28;5031029;28;20037;-77
2022/05/23 06:58:12;;;;;;;13.23;7.78;;;;;;;18.37;70.77;100094.47;5027371;28;20112;-77
2022/05/23 07:00:38;;;;;;;11.98;6.70;;;;;;;18.41;70.55;100095.53;5011566;28;20033;-77
2022/05/23 07:03:04;;;;;;;12.43;7.22;;;;;;;18.45;70.84;100099.31;5005281;28;20366;-75
2022/05/23 07:13:44;;;;;;;13.75;6.63;;;;;;;18.51;71.33;100092.66;5017860;28;20045;-75
2022/05/23 07:16:09;;;;;;;10.90;5.38;;;;;;;18.52;70.24;100097.00;5013067;28;20034;-75
2022/05/23 07:18:35;;;;;;;11.57;5.32;;;;;;;18.54;70.10;100092.06;5014413;28;20036;-77
2022/05/23 07:21:00;;;;;;;10.77;5.72;;;;;;;18.51;73.66;100087.16;5003931;28;20037;-77
2022/05/23 07:23:25;;;;;;;12.85;6.15;;;;;;;18.55;73.67;100085.44;5019317;28;20493;-74
2022/05/23 07:25:51;;;;;;;12.60;5.85;;;;;;;18.51;71.92;100092.66;5011540;28;20037;-75
2022/05/23 07:28:16;;;;;;;11.15;5.70;;;;;;;18.51;72.72;100092.66;5017215;28;20041;-78
2022/05/23 07:30:43;;;;;;;11.23;5.28;;;;;;;18.53;72.67;100098.63;5028049;28;20105;-75
2022/05/23 07:33:09;;;;;;;12.68;5.82;;;;;;;18.54;69.48;100096.69;5022140;28;20057;-75
2022/05/23 07:35:35;;;;;;;9.98;5.72;;;;;;;18.53;71.80;100089.59;5019688;28;20055;-75
2022/05/23 07:38:00;;;;;;;14.90;5.78;;;;;;;18.57;72.52;100091.47;5020922;28;20480;-75
2022/05/23 07:40:26;;;;;;;12.20;5.28;;;;;;;18.64;71.39;100095.75;4996605;28;20038;-76
2022/05/23 07:42:51;;;;;;;13.13;5.53;;;;;;;18.75;72.26;100099.94;5008252;28;20366;-79
2022/05/23 07:45:17;;;;;;;11.52;5.72;;;;;;;18.83;72.15;100091.06;5011702;28;20041;-77
2022/05/23 07:47:42;;;;;;;9.68;5.43;;;;;;;18.97;71.91;100082.91;5016581;28;20026;-78
2022/05/23 07:50:10;;;;;;;15.60;5.50;;;;;;;19.00;70.98;100076.00;4983120;28;20038;-78
2022/05/23 07:52:35;;;;;;;9.43;5.40;;;;;;;19.09;69.85;100077.75;5013536;28;20046;-77
2022/05/23 08:00:33;;;;;;;16.02;5.25;;;;;;;19.33;69.78;100085.00;5010603;28;20045;-78
2022/05/23 08:03:16;;;;;;;12.02;5.38;;;;;;;19.49;68.34;100077.31;4994160;28;20042;-79
2022/05/23 08:05:42;;;;;;;10.45;5.00;;;;;;;19.57;67.30;100073.84;4994558;28;20042;-78
2022/05/23 08:08:07;;;;;;;11.82;4.80;;;;;;;19.59;65.32;100066.13;4994962;28;20036;-78
2022/05/23 08:10:32;;;;;;;9.13;4.05;;;;;;;19.53;63.44;100056.38;5013446;28;20040;-78
2022/05/23 08:12:58;;;;;;;9.52;4.13;;;;;;;19.48;63.81;100053.72;5016305;28;20261;-78
2022/05/23 08:15:28;;;;;;;10.80;3.97;;;;;;;19.50;64.25;100045.19;5020945;28;20037;-78
2022/05/23 09:09:19;;;;;;;13.27;4.60;;;;;;;19.87;65.26;99963.75;5016390;28;1228862;-75
2022/05/23 09:12:09;;;;;;;14.85;4.55;;;;;;;19.87;64.71;99964.56;5058398;28;20036;-72
2022/05/23 09:14:35;;;;;;;13.70;4.72;;;;;;;19.86;65.78;99965.69;5072386;28;20028;-69
2022/05/23 09:17:01;;;;;;;13.60;4.38;;;;;;;19.85;64.94;99958.56;5068189;28;20108;-70
2022/05/23 09:19:56;;;;;;;11.55;4.38;;;;;;;19.84;66.27;99956.97;5068930;28;20171;-70
2022/05/23 09:22:43;;;;;;;9.73;4.35;;;;;;;19.83;66.26;99966.31;5068187;28;20064;-72
2022/05/23 09:25:21;;;;;;;10.35;4.20;;;;;;;19.81;67.17;99963.06;5062631;28;20051;-72
2022/05/23 09:27:51;;;;;;;8.95;4.55;;;;;;;19.78;65.72;99947.22;5089279;28;20032;-72
2022/05/23 09:30:23;;;;;;;8.25;4.25;;;;;;;19.79;66.18;99937.84;5072473;28;20033;-73
2022/05/23 09:32:53;;;;;;;9.90;4.60;;;;;;;19.77;66.29;99934.56;5051029;28;20457;-70
2022/05/23 09:35:22;;;;;;;7.88;4.50;;;;;;;19.83;65.41;99930.63;5068526;28;20032;-70
2022/05/23 09:38:11;;;;;;;13.73;4.53;;;;;;;19.93;65.46;99927.66;5068762;28;20032;-71
2022/05/23 09:40:38;;;;;;;12.13;4.40;;;;;;;20.07;66.74;99904.81;5068635;28;20031;-72
2022/05/23 09:49:03;;;;;;;10.35;4.28;;;;;;;20.33;64.64;99905.78;5068163;28;20071;-70
2022/05/23 09:51:29;;;;;;;11.35;4.43;;;;;;;20.32;64.80;99906.94;5065380;28;20488;-72
2022/05/23 09:53:59;;;;;;;9.18;5.05;;;;;;;20.31;63.79;99894.31;5068411;28;20068;-69
2022/05/23 09:56:29;;;;;;;15.02;4.82;;;;;;;20.36;63.16;99885.13;5054820;28;20025;-71
2022/05/23 09:58:56;;;;;;;8.87;4.10;;;;;;;20.51;64.64;99881.97;5054856;28;20025;-71
2022/05/23 10:01:33;;;;;;;10.10;4.80;;;;;;;20.66;64.05;99871.72;5040143;28;20504;-72
2022/05/23 10:03:59;;;;;;;8.70;4.90;;;;;;;20.77;64.63;99866.75;5055161;28;20381;-72
2022/05/23 10:06:48;;;;;;;10.52;5.47;;;;;;;20.78;63.10;99860.94;5054570;28;20125;-71
2022/05/23 10:09:32;;;;;;;10.57;5.32;;;;;;;20.87;62.91;99866.47;5034279;28;20053;-71
2022/05/23 10:12:00;;;;;;;8.25;4.80;;;;;;;20.96;63.15;99864.56;5013699;28;20038;-71
2022/05/23 10:14:41;;;;;;;10.43;4.45;;;;;;;21.06;63.73;99858.75;5015305;28;20064;-71
2022/05/23 10:17:06;;;;;;;9.40;4.90;;;;;;;21.14;62.06;99853.63;5015078;28;20478;-71
2022/05/23 10:19:34;;;;;;;8.60;4.93;;;;;;;21.23;61.63;99857.19;5014345;28;20045;-70
2022/05/23 10:22:16;;;;;;;9.65;4.05;;;;;;;21.33;61.91;99872.56;5033303;28;20037;-71
2022/05/23 10:24:50;;;;;;;16.42;4.72;;;;;;;21.35;60.22;99876.63;5034682;28;20546;-70
2022/05/23 10:27:26;;;;;;;10.07;4.68;;;;;;;21.47;60.45;99869.66;5034245;28;20029;-71
2022/05/23 10:29:59;;;;;;;8.27;4.15;;;;;;;21.52;59.82;99864.84;5040367;28;20033;-70
2022/05/23 10:32:41;;;;;;;9.10;4.40;;;;;;;21.61;60.08;99867.59;5054715;28;20053;-70
2022/05/23 10:35:29;;;;;;;12.77;4.38;;;;;;;21.66;59.66;99858.38;5038152;28;20037;-71
2022/05/23 10:42:07;;;;;;;6.95;4.10;;;;;;;21.81;59.62;99866.16;5034392;28;20025;-71
2022/05/23 10:43:28;;;;;;;6.13;3.90;;;;;;;22.10;57.99;99834.34;5014488;28;20574;-70
2022/05/23 10:46:01;;;;;;;7.75;3.65;;;;;;;22.18;55.35;99830.78;5013067;28;20034;-71
2022/05/23 10:49:03;;;;;;;6.22;3.60;;;;;;;22.34;57.18;99822.00;5014493;28;20034;-70
2022/05/23 10:51:44;;;;;;;8.00;4.20;;;;;;;22.46;55.82;99813.84;5027179;28;20042;-71
2022/05/23 10:54:41;;;;;;;8.02;3.95;;;;;;;22.56;54.66;99813.47;5033130;28;20025;-71
2022/05/23 10:57:31;;;;;;;8.68;4.10;;;;;;;22.74;55.81;99811.47;5003006;28;20092;-69
2022/05/23 11:00:03;;;;;;;8.32;4.13;;;;;;;22.83;55.17;99806.69;5016385;28;20481;-71
2022/05/23 11:02:53;;;;;;;8.05;4.45;;;;;;;22.95;55.41;99803.22;5026016;28;20073;-70
2022/05/23 11:05:26;;;;;;;8.88;3.78;;;;;;;23.10;52.88;99792.75;5032385;28;20037;-71
2022/05/23 11:08:22;;;;;;;10.43;4.05;;;;;;;23.29;54.42;99781.25;5032637;28;20036;-72
2022/05/23 11:10:53;;;;;;;6.47;3.72;;;;;;;23.33;51.03;99760.13;4934809;28;20455;-71
2022/05/23 11:13:34;;;;;;;;;;;;;;;23.38;54.21;99754.41;5033863;28;20033;-69
2022/05/23 11:16:18;;;;;;;10.43;3.75;;;;;;;23.34;50.13;99742.41;5033704;28;20375;-68
2022/05/23 11:19:06;;;;;;;5.03;2.90;;;;;;;23.35;51.62;99730.22;5027680;28;20034;-69
2022/05/23 11:21:40;;;;;;;7.50;3.30;;;;;;;23.27;50.91;99728.38;5014028;28;20089;-71
2022/05/23 11:24:15;;;;;;;7.45;3.33;;;;;;;23.16;51.55;99720.50;5013713;28;20029;-71
2022/05/23 11:26:49;;;;;;;9.20;3.33;;;;;;;23.11;51.42;99720.69;5028960;28;20065;-72
2022/05/23 11:35:07;;;;;;;9.63;2.97;;;;;;;22.91;50.35;99697.44;5013468;28;20041;-70
2022/05/23 11:37:45;;;;;;;6.68;2.50;;;;;;;22.99;51.61;99693.81;5024147;28;20048;-71
2022/05/23 11:40:32;;;;;;;6.38;2.40;;;;;;;23.03;49.21;99693.94;5033368;28;20040;-70
2022/05/23 11:43:07;;;;;;;3.72;2.30;;;;;;;23.11;48.74;99703.31;5018825;28;20037;-68
2022/05/23 11:48:41;;;;;;;7.22;3.20;;;;;;;23.05;51.03;99683.38;5032971;28;20500;-72
2022/05/23 11:51:30;;;;;;;10.45;3.05;;;;;;;23.01;51.86;99691.53;5013544;28;20076;-71
2022/05/23 11:54:01;;;;;;;7.82;2.83;;;;;;;23.08;50.15;99684.66;5012825;28;20032;-72
2022/05/23 11:56:44;;;;;;;9.18;2.70;;;;;;;23.07;49.76;99683.03;5019268;28;20442;-72
2022/05/23 11:59:12;;;;;;;12.27;2.63;;;;;;;23.05;49.47;99668.78;5044614;28;20025;-72
2022/05/23 12:01:39;;;;;;;6.70;2.63;;;;;;;23.03;49.43;99669.13;5029994;28;20371;-72
2022/05/23 12:04:04;;;;;;;5.38;2.28;;;;;;;23.02;48.64;99664.72;5036179;28;20428;-71
2022/05/23 12:06:29;;;;;;;6.73;2.70;;;;;;;23.00;49.68;99667.03;5037716;28;20045;-72
2022/05/23 12:08:57;;;;;;;7.40;2.60;;;;;;;22.92;49.35;99665.16;5029306;28;20045;-72
2022/05/23 12:11:25;;;;;;;5.47;2.33;;;;;;;22.87;49.61;99668.13;5032537;28;20121;-72
2022/05/23 12:13:51;;;;;;;3.08;1.95;;;;;;;22.80;48.90;99663.94;5032098;28;20030;-70
2022/05/23 12:16:26;;;;;;;5.28;2.20;;;;;;;22.73;50.18;99663.66;5031275;28;20025;-72
2022/05/23 12:19:06;;;;;;;5.57;2.50;;;;;;;22.65;51.00;99653.53;5032486;28;20029;-71
2022/05/23 12:21:37;;;;;;;5.05;2.40;;;;;;;22.61;51.94;99655.31;5032160;28;20492;-72
2022/05/23 12:24:26;;;;;;;6.03;2.50;;;;;;;22.60;52.97;99653.72;5048529;28;20032;-74
2022/05/23 12:26:55;;;;;;;4.70;2.30;;;;;;;22.58;52.61;99653.25;5052478;28;20466;-74
2022/05/23 12:29:31;;;;;;;7.57;2.20;;;;;;;22.58;51.84;99650.50;5052251;28;20086;-72
2022/05/23 12:32:21;;;;;;;7.55;2.08;;;;;;;22.55;51.47;99649.19;5052256;28;20056;-72
2022/05/23 12:34:48;;;;;;;7.77;2.33;;;;;;;22.55;51.27;99635.41;5052144;28;20025;-72
2022/05/23 12:37:28;;;;;;;7.15;2.22;;;;;;;22.57;52.17;99627.63;5043262;28;20356;-73
2022/05/23 12:39:57;;;;;;;4.93;2.30;;;;;;;22.58;50.79;99633.94;4994893;28;20038;-71
2022/05/23 12:42:49;;;;;;;3.67;2.10;;;;;;;22.57;51.61;99624.06;5012353;28;20070;-73
2022/05/23 12:45:40;;;;;;;5.80;2.15;;;;;;;22.55;51.11;99615.31;5011856;28;20375;-73
2022/05/23 12:48:42;;;;;;;5.95;2.22;;;;;;;22.59;51.39;99608.00;5015276;28;20096;-73
2022/05/23 12:51:18;;;;;;;4.78;2.20;;;;;;;22.62;51.54;99591.59;5031884;28;20052;-73
2022/05/23 12:54:01;;;;;;;10.35;2.60;;;;;;;22.69;51.69;99602.09;5032110;28;20030;-72
2022/05/23 12:56:56;;;;;;;5.43;2.38;;;;;;;22.74;50.73;99595.56;5031520;28;20063;-73
2022/05/23 12:59:50;;;;;;;6.75;2.00;;;;;;;22.76;51.47;99591.28;5011770;28;20042;-73
2022/05/23 13:02:51;;;;;;;5.60;2.05;;;;;;;22.73;51.26;99582.91;5019886;28;20064;-74
2022/05/23 13:05:39;;;;;;;4.63;2.30;;;;;;;22.68;51.54;99586.69;5031839;28;20561;-72
2022/05/23 13:08:27;;;;;;;4.47;2.50;;;;;;;22.62;50.55;99582.50;5021023;28;20147;-72
2022/05/23 13:11:03;;;;;;;7.35;3.08;;;;;;;22.59;52.71;99575.72;5027363;28;20378;-73
2022/05/23 13:13:40;;;;;;;4.63;2.45;;;;;;;22.51;52.53;99567.50;5031588;28;20036;-74
2022/05/23 13:16:27;;;;;;;4.15;2.30;;;;;;;22.50;53.08;99577.75;5030773;28;20037;-71
2022/05/23 13:22:05;;;;;;;;;;;;;;;22.48;53.32;99569.81;5000100;28;20037;-74
2022/05/23 13:24:49;;;;;;;7.57;2.40;;;;;;;22.32;53.82;99568.78;5031396;28;19909;-74
2022/05/23 13:27:30;;;;;;;4.97;2.47;;;;;;;22.25;53.63;99576.75;5031091;28;20049;-82